createdAt,value
2024-04-09T00:00:20.740Z,99672.47
2024-04-09T00:01:22.926Z,99676.19
2024-04-09T00:02:24.981Z,99675.56
2024-04-09T00:03:29.457Z,99678.16
2024-04-09T00:04:31.717Z,99674.13
2024-04-09T00:05:47.222Z,99674.31
2024-04-09T00:06:53.604Z,99671.72
2024-04-09T00:07:57.586Z,99673.03
2024-04-09T00:08:59.950Z,99671.41
2024-04-09T00:10:06.587Z,99678.03
2024-04-09T00:11:22.794Z,99671.88
2024-04-09T00:12:27.313Z,99670.25
2024-04-09T00:13:31.523Z,99665.25
2024-04-09T00:14:37.688Z,99671.75
2024-04-09T00:15:40.390Z,99664.63
2024-04-09T00:16:47.782Z,99663.81
2024-04-09T00:17:55.975Z,99677.47
2024-04-09T00:18:59.414Z,99666.09
2024-04-09T00:20:09.636Z,99661.91
2024-04-09T00:21:12.394Z,99668.03
2024-04-09T00:22:14.890Z,99665.31
2024-04-09T00:23:16.868Z,99667.25
2024-04-09T00:24:19.718Z,99666.44
2024-04-09T00:25:26.538Z,99664.63
2024-04-09T00:26:31.799Z,99665.81
2024-04-09T00:27:35.634Z,99666.84
2024-04-09T00:28:37.800Z,99672.53
2024-04-09T00:29:40.308Z,99661.84
2024-04-09T00:30:46.957Z,99663.31
2024-04-09T00:31:49.219Z,99664.63
2024-04-09T00:32:52.344Z,99665.72
2024-04-09T00:33:57.400Z,99671.09
2024-04-09T00:34:59.770Z,99670.44
2024-04-09T00:36:15.065Z,99665.25
2024-04-09T00:37:20.716Z,99664.13
2024-04-09T00:38:23.495Z,99663.19
2024-04-09T00:39:29.173Z,99660.72
2024-04-09T00:40:31.074Z,99662.34
2024-04-09T00:41:33.983Z,99658.13
2024-04-09T00:42:38.936Z,99659.28
2024-04-09T00:43:42.606Z,99659.47
2024-04-09T00:44:45.135Z,99656.22
2024-04-09T00:45:51.284Z,99659.16
2024-04-09T00:46:53.647Z,99657.25
2024-04-09T00:48:00.332Z,99657.06
2024-04-09T00:49:02.807Z,99659.84
2024-04-09T00:50:11.473Z,99659.03
2024-04-09T00:51:18.373Z,99664.03
2024-04-09T00:52:20.289Z,99661.44
2024-04-09T00:53:23.234Z,99659.84
2024-04-09T00:54:25.745Z,99655.94
2024-04-09T00:55:29.002Z,99654.50
2024-04-09T00:56:33.799Z,99649.31
2024-04-09T00:57:43.908Z,99656.94
2024-04-09T00:58:47.153Z,99656.31
2024-04-09T00:59:50.135Z,99660.69
2024-04-09T01:00:53.253Z,99666.84
2024-04-09T01:01:56.143Z,99657.94
2024-04-09T01:02:59.172Z,99661.19
2024-04-09T01:04:01.643Z,99656.16
2024-04-09T01:05:05.845Z,99664.91
2024-04-09T01:06:09.438Z,99659.91
2024-04-09T01:07:11.825Z,99658.97
2024-04-09T01:08:14.150Z,99659.09
2024-04-09T01:09:16.895Z,99661.25
2024-04-09T01:10:19.108Z,99661.25
2024-04-09T01:11:21.049Z,99659.78
2024-04-09T01:12:23.914Z,99660.94
2024-04-09T01:13:25.893Z,99657.38
2024-04-09T01:14:29.593Z,99658.00
2024-04-09T01:15:32.725Z,99653.66
2024-04-09T01:16:35.590Z,99657.72
2024-04-09T01:17:38.366Z,99661.59
2024-04-09T01:18:40.661Z,99652.19
2024-04-09T01:19:42.832Z,99657.56
2024-04-09T01:20:51.332Z,99658.34
2024-04-09T01:21:54.057Z,99657.38
2024-04-09T01:22:56.871Z,99652.50
2024-04-09T01:23:59.258Z,99653.94
2024-04-09T01:25:02.329Z,99647.16
2024-04-09T01:26:04.325Z,99646.97
2024-04-09T01:27:13.125Z,99645.53
2024-04-09T01:28:15.025Z,99650.56
2024-04-09T01:29:17.207Z,99652.16
2024-04-09T01:30:19.428Z,99649.56
2024-04-09T01:31:23.219Z,99656.53
2024-04-09T01:32:27.262Z,99655.91
2024-04-09T01:33:29.790Z,99654.13
2024-04-09T01:34:36.983Z,99655.75
2024-04-09T01:35:39.329Z,99661.91
2024-04-09T01:36:43.134Z,99657.34
2024-04-09T01:37:45.231Z,99655.56
2024-04-09T01:38:48.353Z,99654.75
2024-04-09T01:39:50.299Z,99655.91
2024-04-09T01:40:52.859Z,99657.53
2024-04-09T01:41:55.930Z,99656.22
2024-04-09T01:42:58.076Z,99655.41
2024-04-09T01:44:00.152Z,99663.38
2024-04-09T01:45:02.692Z,99659.34
2024-04-09T01:46:10.889Z,99651.56
2024-04-09T01:47:14.585Z,99659.81
2024-04-09T01:48:17.554Z,99659.66
2024-04-09T01:49:20.275Z,99663.06
2024-04-09T01:50:22.950Z,99660.63
2024-04-09T01:51:25.201Z,99657.56
2024-04-09T01:52:27.243Z,99658.88
2024-04-09T01:53:29.401Z,99666.47
2024-04-09T01:54:31.728Z,99659.50
2024-04-09T01:55:40.229Z,99667.28
2024-04-09T01:56:43.960Z,99666.47
2024-04-09T01:57:48.970Z,99658.25
2024-04-09T01:58:52.473Z,99659.84
2024-04-09T01:59:54.531Z,99663.41
2024-04-09T02:01:11.528Z,99659.69
2024-04-09T02:02:16.756Z,99660.47
2024-04-09T02:03:19.036Z,99663.06
2024-04-09T02:04:21.380Z,99662.75
2024-04-09T02:05:23.699Z,99660.97
2024-04-09T02:06:28.639Z,99664.03
2024-04-09T02:07:30.453Z,99666.31
2024-04-09T02:08:34.007Z,99659.34
2024-04-09T02:09:38.002Z,99663.72
2024-04-09T02:10:42.021Z,99659.81
2024-04-09T02:11:44.388Z,99658.81
2024-04-09T02:12:46.354Z,99658.69
2024-04-09T02:13:49.728Z,99655.56
2024-04-09T02:14:51.872Z,99656.38
2024-04-09T02:15:55.246Z,99650.50
2024-04-09T02:16:57.632Z,99649.81
2024-04-09T02:17:59.597Z,99652.91
2024-04-09T02:19:03.915Z,99654.88
2024-04-09T02:20:10.321Z,99649.53
2024-04-09T02:21:16.548Z,99650.34
2024-04-09T02:22:18.735Z,99652.00
2024-04-09T02:23:20.897Z,99650.06
2024-04-09T02:24:24.221Z,99650.53
2024-04-09T02:25:26.475Z,99653.47
2024-04-09T02:26:31.757Z,99639.84
2024-04-09T02:27:34.122Z,99643.41
2024-04-09T02:28:36.313Z,99644.56
2024-04-09T02:29:38.692Z,99640.69
2024-04-09T02:30:40.828Z,99646.03
2024-04-09T02:31:43.958Z,99640.38
2024-04-09T02:32:45.921Z,99644.91
2024-04-09T02:33:50.614Z,99645.72
2024-04-09T02:34:53.587Z,99642.03
2024-04-09T02:36:04.606Z,99642.97
2024-04-09T02:37:06.933Z,99640.88
2024-04-09T02:38:10.502Z,99636.00
2024-04-09T02:39:14.383Z,99638.59
2024-04-09T02:40:17.023Z,99638.28
2024-04-09T02:41:20.806Z,99644.09
2024-04-09T02:42:23.377Z,99638.91
2024-04-09T02:43:28.290Z,99640.06
2024-04-09T02:44:32.645Z,99637.13
2024-04-09T02:45:35.205Z,99635.53
2024-04-09T02:46:39.493Z,99634.09
2024-04-09T02:47:41.831Z,99638.91
2024-04-09T02:48:44.281Z,99637.31
2024-04-09T02:49:47.054Z,99636.31
2024-04-09T02:50:54.456Z,99636.50
2024-04-09T02:51:57.188Z,99633.75
2024-04-09T02:52:59.234Z,99637.31
2024-04-09T02:54:01.499Z,99642.66
2024-04-09T02:55:06.389Z,99634.88
2024-04-09T02:56:11.583Z,99637.78
2024-04-09T02:57:13.606Z,99636.19
2024-04-09T02:58:16.191Z,99640.56
2024-04-09T02:59:18.442Z,99638.63
2024-04-09T03:00:20.513Z,99638.81
2024-04-09T03:01:22.434Z,99637.66
2024-04-09T03:02:25.391Z,99636.88
2024-04-09T03:03:27.719Z,99642.53
2024-04-09T03:04:34.911Z,99639.94
2024-04-09T03:05:36.987Z,99642.38
2024-04-09T03:06:39.240Z,99645.13
2024-04-09T03:07:47.573Z,99635.09
2024-04-09T03:08:51.553Z,99641.25
2024-04-09T03:09:53.774Z,99641.06
2024-04-09T03:10:56.269Z,99644.31
2024-04-09T03:12:02.005Z,99643.50
2024-04-09T03:13:04.622Z,99643.84
2024-04-09T03:14:10.996Z,99650.63
2024-04-09T03:15:15.340Z,99650.47
2024-04-09T03:16:22.065Z,99648.03
2024-04-09T03:17:24.069Z,99644.19
2024-04-09T03:18:25.989Z,99650.97
2024-04-09T03:19:29.577Z,99648.88
2024-04-09T03:20:31.828Z,99652.25
2024-04-09T03:21:34.781Z,99648.69
2024-04-09T03:22:40.331Z,99648.06
2024-04-09T03:23:42.748Z,99650.50
2024-04-09T03:24:56.280Z,99645.31
2024-04-09T03:25:58.514Z,99651.94
2024-04-09T03:27:00.794Z,99655.16
2024-04-09T03:28:05.103Z,99653.88
2024-04-09T03:29:07.502Z,99653.88
2024-04-09T03:30:10.433Z,99648.19
2024-04-09T03:31:12.381Z,99644.63
2024-04-09T03:32:14.198Z,99655.00
2024-04-09T03:33:16.512Z,99649.81
2024-04-09T03:34:18.987Z,99648.03
2024-04-09T03:35:21.209Z,99643.84
2024-04-09T03:36:23.820Z,99650.31
2024-04-09T03:37:25.666Z,99647.56
2024-04-09T03:38:27.724Z,99649.34
2024-04-09T03:39:30.714Z,99648.38
2024-04-09T03:40:32.871Z,99647.38
2024-04-09T03:41:35.061Z,99647.56
2024-04-09T03:42:37.356Z,99639.16
2024-04-09T03:43:41.275Z,99643.53
2024-04-09T03:44:43.483Z,99636.88
2024-04-09T03:46:04.138Z,99645.78
2024-04-09T03:47:06.159Z,99649.66
2024-04-09T03:48:09.134Z,99651.94
2024-04-09T03:49:12.709Z,99650.78
2024-04-09T03:50:15.142Z,99646.44
2024-04-09T03:51:17.632Z,99644.81
2024-04-09T03:52:19.790Z,99651.91
2024-04-09T03:53:21.900Z,99647.56
2024-04-09T03:54:23.821Z,99653.22
2024-04-09T03:55:26.026Z,99652.91
2024-04-09T03:56:30.216Z,99645.16
2024-04-09T03:57:32.501Z,99652.59
2024-04-09T03:58:38.299Z,99648.53
2024-04-09T03:59:40.410Z,99645.28
2024-04-09T04:00:42.593Z,99641.72
2024-04-09T04:01:44.719Z,99643.19
2024-04-09T04:02:49.294Z,99648.03
2024-04-09T04:03:51.305Z,99642.22
2024-04-09T04:04:53.416Z,99645.78
2024-04-09T04:05:57.192Z,99637.22
2024-04-09T04:06:59.340Z,99641.41
2024-04-09T04:08:01.296Z,99644.47
2024-04-09T04:09:03.727Z,99640.75
2024-04-09T04:10:07.910Z,99644.00
2024-04-09T04:11:13.134Z,99644.00
2024-04-09T04:12:15.395Z,99639.34
2024-04-09T04:13:24.329Z,99644.34
2024-04-09T04:14:26.453Z,99645.16
2024-04-09T04:15:28.373Z,99642.09
2024-04-09T04:16:33.201Z,99637.38
2024-04-09T04:17:36.110Z,99634.28
2024-04-09T04:18:41.094Z,99639.00
2024-04-09T04:19:44.440Z,99634.44
2024-04-09T04:20:54.247Z,99638.31
2024-04-09T04:21:56.555Z,99634.59
2024-04-09T04:22:59.134Z,99639.28
2024-04-09T04:24:01.414Z,99635.19
2024-04-09T04:25:03.452Z,99633.59
2024-04-09T04:26:08.171Z,99641.69
2024-04-09T04:27:12.208Z,99638.25
2024-04-09T04:28:14.331Z,99635.31
2024-04-09T04:29:17.129Z,99631.88
2024-04-09T04:30:19.295Z,99630.41
2024-04-09T04:31:23.924Z,99631.66
2024-04-09T04:32:27.685Z,99634.94
2024-04-09T04:33:30.993Z,99641.72
2024-04-09T04:34:33.108Z,99636.66
2024-04-09T04:35:35.191Z,99634.84
2024-04-09T04:36:37.737Z,99635.44
2024-04-09T04:37:39.884Z,99634.41
2024-04-09T04:38:42.789Z,99633.09
2024-04-09T04:39:44.876Z,99632.75
2024-04-09T04:40:47.487Z,99635.28
2024-04-09T04:41:50.929Z,99635.38
2024-04-09T04:42:53.138Z,99634.94
2024-04-09T04:43:56.134Z,99634.94
2024-04-09T04:44:58.402Z,99635.75
2024-04-09T04:46:00.847Z,99634.44
2024-04-09T04:47:03.101Z,99638.00
2024-04-09T04:48:05.352Z,99635.47
2024-04-09T04:49:07.371Z,99638.91
2024-04-09T04:50:11.754Z,99639.09
2024-04-09T04:51:13.860Z,99643.03
2024-04-09T04:52:20.351Z,99638.19
2024-04-09T04:53:22.202Z,99639.22
2024-04-09T04:54:24.553Z,99638.06
2024-04-09T04:55:27.714Z,99642.78
2024-04-09T04:56:30.383Z,99640.19
2024-04-09T04:57:33.909Z,99638.16
2024-04-09T04:58:36.222Z,99635.75
2024-04-09T04:59:38.126Z,99631.63
2024-04-09T05:00:40.517Z,99633.84
2024-04-09T05:01:43.593Z,99628.28
2024-04-09T05:02:46.107Z,99632.03
2024-04-09T05:03:49.059Z,99634.09
2024-04-09T05:04:53.692Z,99634.53
2024-04-09T05:05:55.869Z,99632.88
2024-04-09T05:06:58.071Z,99638.66
2024-04-09T05:08:00.673Z,99637.59
2024-04-09T05:09:03.232Z,99634.16
2024-04-09T05:10:14.489Z,99634.84
2024-04-09T05:11:17.049Z,99637.00
2024-04-09T05:12:19.321Z,99633.28
2024-04-09T05:13:21.223Z,99639.47
2024-04-09T05:14:23.332Z,99638.78
2024-04-09T05:15:25.460Z,99635.47
2024-04-09T05:16:31.042Z,99641.09
2024-04-09T05:17:33.758Z,99631.50
2024-04-09T05:18:36.216Z,99645.59
2024-04-09T05:19:38.425Z,99640.75
2024-04-09T05:20:41.547Z,99635.31
2024-04-09T05:21:44.117Z,99634.34
2024-04-09T05:22:47.853Z,99637.13
2024-04-09T05:23:52.633Z,99636.56
2024-04-09T05:24:56.252Z,99638.38
2024-04-09T05:25:59.225Z,99636.75
2024-04-09T05:27:02.804Z,99637.75
2024-04-09T05:28:05.093Z,99639.94
2024-04-09T05:29:07.820Z,99637.88
2024-04-09T05:30:12.386Z,99634.66
2024-04-09T05:31:14.607Z,99634.81
2024-04-09T05:32:16.997Z,99638.41
2024-04-09T05:33:19.187Z,99642.22
2024-04-09T05:34:21.186Z,99639.72
2024-04-09T05:35:26.865Z,99644.09
2024-04-09T05:36:31.779Z,99636.84
2024-04-09T05:37:35.988Z,99639.22
2024-04-09T05:38:38.607Z,99636.59
2024-04-09T05:39:42.954Z,99639.16
2024-04-09T05:40:45.095Z,99639.44
2024-04-09T05:41:48.803Z,99644.44
2024-04-09T05:42:51.221Z,99642.28
2024-04-09T05:43:53.460Z,99641.72
2024-04-09T05:44:55.596Z,99638.00
2024-04-09T05:45:58.525Z,99632.69
2024-04-09T05:47:03.338Z,99647.16
2024-04-09T05:48:06.060Z,99635.84
2024-04-09T05:49:08.324Z,99646.09
2024-04-09T05:50:11.280Z,99642.09
2024-04-09T05:51:14.981Z,99639.66
2024-04-09T05:52:17.194Z,99640.22
2024-04-09T05:53:19.218Z,99648.19
2024-04-09T05:54:25.868Z,99646.94
2024-04-09T05:55:27.886Z,99644.31
2024-04-09T05:56:31.999Z,99638.13
2024-04-09T05:57:37.160Z,99647.34
2024-04-09T05:58:39.131Z,99638.84
2024-04-09T05:59:41.073Z,99645.22
2024-04-09T06:00:47.350Z,99646.16
2024-04-09T06:01:52.132Z,99639.97
2024-04-09T06:02:54.296Z,99646.53
2024-04-09T06:03:56.757Z,99639.75
2024-04-09T06:04:59.617Z,99647.13
2024-04-09T06:06:01.778Z,99649.63
2024-04-09T06:07:04.242Z,99639.84
2024-04-09T06:08:06.956Z,99645.81
2024-04-09T06:09:09.119Z,99637.53
2024-04-09T06:10:14.499Z,99645.59
2024-04-09T06:11:17.777Z,99643.25
2024-04-09T06:12:20.072Z,99642.06
2024-04-09T06:13:21.925Z,99637.78
2024-04-09T06:14:24.124Z,99638.25
2024-04-09T06:15:26.190Z,99641.19
2024-04-09T06:16:28.073Z,99642.16
2024-04-09T06:17:37.317Z,99643.03
2024-04-09T06:18:39.743Z,99640.47
2024-04-09T06:19:43.227Z,99647.91
2024-04-09T06:20:46.116Z,99644.47
2024-04-09T06:21:49.362Z,99652.19
2024-04-09T06:22:52.431Z,99648.22
2024-04-09T06:23:54.331Z,99652.22
2024-04-09T06:24:56.762Z,99645.56
2024-04-09T06:25:59.308Z,99650.66
2024-04-09T06:27:01.553Z,99650.66
2024-04-09T06:28:04.388Z,99656.25
2024-04-09T06:29:06.245Z,99653.41
2024-04-09T06:30:10.427Z,99657.75
2024-04-09T06:31:12.950Z,99654.44
2024-04-09T06:32:15.116Z,99658.03
2024-04-09T06:33:17.193Z,99649.66
2024-04-09T06:34:19.438Z,99654.53
2024-04-09T06:35:22.263Z,99656.91
2024-04-09T06:36:27.482Z,99658.66
2024-04-09T06:37:30.444Z,99650.06
2024-04-09T06:38:32.763Z,99648.44
2024-04-09T06:39:34.640Z,99656.47
2024-04-09T06:40:36.818Z,99650.63
2024-04-09T06:41:38.687Z,99653.06
2024-04-09T06:42:40.811Z,99652.72
2024-04-09T06:43:42.714Z,99646.06
2024-04-09T06:44:46.450Z,99646.28
2024-04-09T06:45:49.233Z,99647.25
2024-04-09T06:46:52.858Z,99649.63
2024-04-09T06:47:56.781Z,99652.63
2024-04-09T06:49:01.463Z,99650.66
2024-04-09T06:50:04.813Z,99650.75
2024-04-09T06:51:06.985Z,99646.09
2024-04-09T06:52:09.907Z,99653.31
2024-04-09T06:53:12.001Z,99647.91
2024-04-09T06:54:15.708Z,99654.53
2024-04-09T06:55:19.396Z,99653.94
2024-04-09T06:56:21.530Z,99654.09
2024-04-09T06:57:23.936Z,99653.63
2024-04-09T06:58:29.466Z,99647.44
2024-04-09T06:59:33.052Z,99650.53
2024-04-09T07:00:35.213Z,99651.59
2024-04-09T07:01:37.640Z,99653.88
2024-04-09T07:02:41.467Z,99652.38
2024-04-09T07:03:44.722Z,99650.41
2024-04-09T07:04:47.741Z,99652.94
2024-04-09T07:05:49.648Z,99648.03
2024-04-09T07:06:53.048Z,99649.50
2024-04-09T07:07:55.517Z,99652.50
2024-04-09T07:09:03.728Z,99653.50
2024-04-09T07:10:09.264Z,99650.44
2024-04-09T07:11:11.349Z,99655.22
2024-04-09T07:12:13.470Z,99653.81
2024-04-09T07:13:16.091Z,99652.78
2024-04-09T07:14:18.227Z,99652.88
2024-04-09T07:15:26.903Z,99657.13
2024-04-09T07:16:29.404Z,99655.50
2024-04-09T07:17:31.443Z,99659.03
2024-04-09T07:18:37.395Z,99662.31
2024-04-09T07:19:42.810Z,99662.84
2024-04-09T07:20:47.267Z,99658.13
2024-04-09T07:21:49.481Z,99656.47
2024-04-09T07:22:51.359Z,99657.28
2024-04-09T07:23:53.563Z,99662.66
2024-04-09T07:24:55.484Z,99659.72
2024-04-09T07:25:57.352Z,99664.66
2024-04-09T07:26:59.236Z,99668.88
2024-04-09T07:28:01.410Z,99666.97
2024-04-09T07:29:06.532Z,99662.25
2024-04-09T07:30:09.604Z,99673.56
2024-04-09T07:31:11.984Z,99668.50
2024-04-09T07:32:16.606Z,99671.94
2024-04-09T07:33:19.582Z,99667.56
2024-04-09T07:34:28.637Z,99670.91
2024-04-09T07:35:33.762Z,99667.41
2024-04-09T07:36:36.043Z,99665.72
2024-04-09T07:37:38.177Z,99666.09
2024-04-09T07:38:41.347Z,99669.41
2024-04-09T07:39:44.663Z,99665.66
2024-04-09T07:40:46.534Z,99660.59
2024-04-09T07:41:49.194Z,99667.66
2024-04-09T07:42:51.603Z,99667.53
2024-04-09T07:43:55.471Z,99674.88
2024-04-09T07:44:58.054Z,99671.72
2024-04-09T07:46:00.997Z,99664.97
2024-04-09T07:47:04.047Z,99669.25
2024-04-09T07:48:10.079Z,99667.25
2024-04-09T07:49:13.611Z,99667.50
2024-04-09T07:50:16.059Z,99667.25
2024-04-09T07:51:17.908Z,99676.31
2024-04-09T07:52:20.020Z,99670.50
2024-04-09T07:53:22.746Z,99669.25
2024-04-09T07:54:26.640Z,99667.56
2024-04-09T07:55:29.529Z,99672.06
2024-04-09T07:56:31.493Z,99671.28
2024-04-09T07:57:39.582Z,99669.59
2024-04-09T07:58:45.686Z,99664.00
2024-04-09T07:59:48.848Z,99668.28
2024-04-09T08:00:51.440Z,99671.63
2024-04-09T08:01:53.918Z,99666.78
2024-04-09T08:02:58.449Z,99668.19
2024-04-09T08:04:01.490Z,99667.69
2024-04-09T08:05:08.424Z,99664.34
2024-04-09T08:06:14.970Z,99672.00
2024-04-09T08:07:17.159Z,99677.91
2024-04-09T08:08:19.763Z,99671.69
2024-04-09T08:09:22.070Z,99671.50
2024-04-09T08:10:25.809Z,99662.56
2024-04-09T08:11:27.949Z,99663.69
2024-04-09T08:12:30.395Z,99660.13
2024-04-09T08:13:32.347Z,99667.56
2024-04-09T08:14:34.629Z,99661.44
2024-04-09T08:15:37.596Z,99663.03
2024-04-09T08:16:39.690Z,99662.13
2024-04-09T08:17:42.762Z,99665.47
2024-04-09T08:18:45.082Z,99666.09
2024-04-09T08:19:47.380Z,99667.75
2024-04-09T08:20:49.363Z,99667.09
2024-04-09T08:21:52.113Z,99667.16
2024-04-09T08:22:54.000Z,99663.22
2024-04-09T08:23:56.553Z,99665.13
2024-04-09T08:24:58.352Z,99659.28
2024-04-09T08:26:00.303Z,99662.25
2024-04-09T08:27:04.458Z,99665.16
2024-04-09T08:28:09.032Z,99659.66
2024-04-09T08:29:15.984Z,99654.69
2024-04-09T08:30:18.513Z,99658.69
2024-04-09T08:31:32.102Z,99659.19
2024-04-09T08:32:37.528Z,99656.75
2024-04-09T08:33:39.661Z,99643.31
2024-04-09T08:35:01.688Z,99653.72
2024-04-09T08:36:24.346Z,99647.41
2024-04-09T08:37:46.706Z,99651.38
2024-04-09T08:39:09.786Z,99650.03
2024-04-09T08:40:31.892Z,99648.47
2024-04-09T08:41:53.922Z,99649.53
2024-04-09T08:43:19.996Z,99639.50
2024-04-09T08:44:45.470Z,99646.34
2024-04-09T08:46:11.568Z,99644.66
2024-04-09T08:47:34.341Z,99642.53
2024-04-09T08:49:00.182Z,99646.13
2024-04-09T08:50:06.394Z,99641.47
2024-04-09T08:51:11.785Z,99651.84
2024-04-09T08:52:17.715Z,99643.94
2024-04-09T08:53:23.761Z,99650.03
2024-04-09T08:54:29.986Z,99643.34
2024-04-09T08:55:35.508Z,99642.66
2024-04-09T08:56:37.561Z,99647.00
2024-04-09T08:57:39.575Z,99648.63
2024-04-09T08:58:41.855Z,99649.16
2024-04-09T08:59:44.324Z,99649.41
2024-04-09T09:00:46.853Z,99648.97
2024-04-09T09:01:49.111Z,99646.25
2024-04-09T09:02:52.943Z,99642.34
2024-04-09T09:03:55.655Z,99640.56
2024-04-09T09:04:57.695Z,99642.66
2024-04-09T09:06:05.396Z,99634.06
2024-04-09T09:07:14.774Z,99638.31
2024-04-09T09:08:16.644Z,99633.88
2024-04-09T09:09:27.321Z,99637.88
2024-04-09T09:10:49.243Z,99637.41
2024-04-09T09:12:11.442Z,99637.69
2024-04-09T09:13:39.183Z,99635.06
2024-04-09T09:15:16.668Z,99636.38
2024-04-09T09:16:39.154Z,99625.06
2024-04-09T09:18:04.660Z,99632.81
2024-04-09T09:19:26.707Z,99632.84
2024-04-09T09:20:48.787Z,99627.53
2024-04-09T09:22:13.234Z,99631.75
2024-04-09T09:23:38.520Z,99631.56
2024-04-09T09:25:00.681Z,99632.28
2024-04-09T09:26:22.986Z,99627.00
2024-04-09T09:27:45.283Z,99624.00
2024-04-09T09:29:07.499Z,99629.41
2024-04-09T09:30:29.758Z,99627.84
2024-04-09T09:31:52.058Z,99630.78
2024-04-09T09:33:17.610Z,99628.16
2024-04-09T09:35:16.437Z,99626.84
2024-04-09T09:36:38.346Z,99632.91
2024-04-09T09:38:02.210Z,99625.19
2024-04-09T09:39:26.669Z,99624.38
2024-04-09T09:40:51.818Z,99620.72
2024-04-09T09:42:17.523Z,99618.56
2024-04-09T09:43:41.663Z,99626.81
2024-04-09T09:44:45.385Z,99628.41
2024-04-09T09:45:50.903Z,99625.19
2024-04-09T09:46:54.593Z,99626.81
2024-04-09T09:48:19.547Z,99619.66
2024-04-09T09:49:23.704Z,99623.59
2024-04-09T09:50:47.034Z,99622.78
2024-04-09T09:51:51.392Z,99622.75
2024-04-09T09:52:54.026Z,99621.69
2024-04-09T09:53:57.964Z,99617.22
2024-04-09T09:55:03.835Z,99619.09
2024-04-09T09:56:09.122Z,99619.09
2024-04-09T09:57:17.399Z,99615.06
2024-04-09T09:58:24.320Z,99613.00
2024-04-09T09:59:39.843Z,99613.25
2024-04-09T10:00:44.901Z,99611.91
2024-04-09T10:01:50.351Z,99619.59
2024-04-09T10:02:54.028Z,99619.06
2024-04-09T10:03:56.736Z,99614.84
2024-04-09T10:05:02.038Z,99613.00
2024-04-09T10:06:19.687Z,99613.50
2024-04-09T10:07:23.324Z,99605.81
2024-04-09T10:08:29.989Z,99601.03
2024-04-09T10:09:49.851Z,99596.81
2024-04-09T10:10:52.124Z,99606.06
2024-04-09T10:11:53.972Z,99607.63
2024-04-09T10:13:09.747Z,99598.66
2024-04-09T10:14:22.796Z,99608.19
2024-04-09T10:15:28.725Z,99614.00
2024-04-09T10:16:32.028Z,99605.78
2024-04-09T10:17:52.808Z,99591.97
2024-04-09T10:18:58.108Z,99599.72
2024-04-09T10:20:02.322Z,99599.16
2024-04-09T10:21:06.212Z,99593.06
2024-04-09T10:22:08.325Z,99600.78
2024-04-09T10:23:13.699Z,99594.44
2024-04-09T10:24:16.162Z,99592.25
2024-04-09T10:25:23.929Z,99584.84
2024-04-09T10:26:28.007Z,99593.63
2024-04-09T10:27:30.830Z,99592.59
2024-04-09T10:28:36.324Z,99585.44
2024-04-09T10:29:57.365Z,99584.34
2024-04-09T10:31:19.528Z,99577.75
2024-04-09T10:32:27.987Z,99580.16
2024-04-09T10:33:35.882Z,99579.06
2024-04-09T10:34:38.384Z,99576.97
2024-04-09T10:35:43.646Z,99579.59
2024-04-09T10:36:48.731Z,99585.47
2024-04-09T10:37:52.752Z,99575.13
2024-04-09T10:38:58.917Z,99575.66
2024-04-09T10:40:00.815Z,99575.91
2024-04-09T10:41:03.976Z,99570.88
2024-04-09T10:42:07.850Z,99566.34
2024-04-09T10:43:10.879Z,99571.41
2024-04-09T10:44:12.837Z,99570.34
2024-04-09T10:45:16.413Z,99569.56
2024-04-09T10:46:18.622Z,99562.38
2024-04-09T10:47:20.920Z,99565.06
2024-04-09T10:48:24.408Z,99558.94
2024-04-09T10:49:26.803Z,99557.59
2024-04-09T10:50:30.977Z,99564.53
2024-04-09T10:51:33.698Z,99555.75
2024-04-09T10:52:37.015Z,99561.06
2024-04-09T10:53:39.144Z,99559.19
2024-04-09T10:54:41.159Z,99560.25
2024-04-09T10:55:45.797Z,99558.16
2024-04-09T10:56:59.855Z,99558.13
2024-04-09T10:58:02.012Z,99557.09
2024-04-09T10:59:17.236Z,99556.03
2024-04-09T11:00:24.372Z,99551.50
2024-04-09T11:01:27.165Z,99552.03
2024-04-09T11:02:32.314Z,99550.19
2024-04-09T11:03:34.864Z,99548.34
2024-04-09T11:04:40.322Z,99548.84
2024-04-09T11:05:43.402Z,99552.03
2024-04-09T11:06:45.914Z,99555.25
2024-04-09T11:07:50.544Z,99545.97
2024-04-09T11:08:52.428Z,99546.75
2024-04-09T11:09:58.596Z,99546.22
2024-04-09T11:11:02.076Z,99535.09
2024-04-09T11:12:06.923Z,99529.50
2024-04-09T11:13:09.575Z,99525.28
2024-04-09T11:14:13.051Z,99532.69
2024-04-09T11:15:16.300Z,99530.03
2024-04-09T11:16:19.471Z,99535.09
2024-04-09T11:17:23.661Z,99538.03
2024-04-09T11:18:26.042Z,99525.00
2024-04-09T11:19:29.786Z,99532.19
2024-04-09T11:20:32.618Z,99535.34
2024-04-09T11:21:36.710Z,99530.06
2024-04-09T11:22:42.636Z,99528.75
2024-04-09T11:23:44.898Z,99527.66
2024-04-09T11:24:47.263Z,99515.75
2024-04-09T11:25:52.409Z,99519.19
2024-04-09T11:26:54.655Z,99526.59
2024-04-09T11:27:58.127Z,99526.09
2024-04-09T11:29:00.530Z,99524.75
2024-04-09T11:30:03.278Z,99519.44
2024-04-09T11:31:06.396Z,99515.75
2024-04-09T11:32:10.202Z,99524.22
2024-04-09T11:33:16.730Z,99525.25
2024-04-09T11:34:31.778Z,99523.19
2024-04-09T11:35:33.925Z,99521.56
2024-04-09T11:36:37.355Z,99517.06
2024-04-09T11:37:57.467Z,99515.75
2024-04-09T11:38:59.791Z,99521.03
2024-04-09T11:40:03.536Z,99511.75
2024-04-09T11:41:10.489Z,99517.84
2024-04-09T11:42:12.582Z,99511.75
2024-04-09T11:43:14.875Z,99505.91
2024-04-09T11:44:24.190Z,99511.47
2024-04-09T11:45:28.781Z,99514.16
2024-04-09T11:46:30.762Z,99513.88
2024-04-09T11:47:33.053Z,99506.97
2024-04-09T11:48:36.789Z,99509.09
2024-04-09T11:49:39.224Z,99506.94
2024-04-09T11:50:41.465Z,99507.50
2024-04-09T11:51:43.900Z,99501.41
2024-04-09T11:52:46.317Z,99500.84
2024-04-09T11:53:49.635Z,99500.31
2024-04-09T11:54:51.637Z,99501.13
2024-04-09T11:55:56.191Z,99498.75
2024-04-09T11:56:58.325Z,99498.19
2024-04-09T11:58:00.241Z,99492.63
2024-04-09T11:59:02.415Z,99495.03
2024-04-09T12:00:05.042Z,99488.13
2024-04-09T12:01:11.055Z,99488.91
2024-04-09T12:02:13.658Z,99493.19
2024-04-09T12:03:16.262Z,99491.03
2024-04-09T12:04:20.929Z,99487.56
2024-04-09T12:05:27.288Z,99476.97
2024-04-09T12:06:29.861Z,99488.09
2024-04-09T12:07:32.055Z,99482.00
2024-04-09T12:08:34.620Z,99475.91
2024-04-09T12:09:37.114Z,99485.44
2024-04-09T12:10:39.114Z,99474.56
2024-04-09T12:11:41.713Z,99474.84
2024-04-09T12:12:44.120Z,99478.06
2024-04-09T12:13:46.967Z,99482.78
2024-04-09T12:14:49.921Z,99470.56
2024-04-09T12:15:52.043Z,99468.75
2024-04-09T12:16:54.762Z,99463.44
2024-04-09T12:17:57.678Z,99464.78
2024-04-09T12:19:00.653Z,99464.75
2024-04-09T12:20:05.177Z,99461.56
2024-04-09T12:21:08.538Z,99461.56
2024-04-09T12:22:14.709Z,99461.59
2024-04-09T12:23:21.021Z,99461.06
2024-04-09T12:24:28.177Z,99461.59
2024-04-09T12:25:30.630Z,99458.13
2024-04-09T12:26:32.764Z,99455.75
2024-04-09T12:27:34.835Z,99464.00
2024-04-09T12:28:36.844Z,99460.78
2024-04-09T12:29:39.741Z,99447.78
2024-04-09T12:30:42.279Z,99449.13
2024-04-09T12:31:44.445Z,99452.81
2024-04-09T12:32:46.797Z,99449.91
2024-04-09T12:33:50.097Z,99444.59
2024-04-09T12:34:53.507Z,99441.94
2024-04-09T12:35:55.469Z,99438.75
2024-04-09T12:36:57.318Z,99437.66
2024-04-09T12:37:59.359Z,99442.22
2024-04-09T12:39:05.093Z,99436.09
2024-04-09T12:40:08.856Z,99430.50
2024-04-09T12:41:12.644Z,99435.03
2024-04-09T12:42:15.161Z,99433.97